sensor_id;sensor_type;location;lat;lon;timestamp;P1;durP1;ratioP1;P2;durP2;ratioP2
9783;SDS011;4931;44.874;-1.092;2022-11-21T00:01:12;43.33;;;9.27;;
9783;SDS011;4931;44.874;-1.092;2022-11-21T00:06:00;45.20;;;8.85;;
9783;SDS011;4931;44.874;-1.092;2022-11-21T00:10:50;38.13;;;8.85;;
9783;SDS011;4931;44.874;-1.092;2022-11-21T00:15:35;37.65;;;9.90;;
9783;SDS011;4931;44.874;-1.092;2022-11-21T00:20:20;66.28;;;12.52;;
9783;SDS011;4931;44.874;-1.092;2022-11-21T00:25:06;39.90;;;7.57;;
9783;SDS011;4931;44.874;-1.092;2022-11-21T00:29:55;35.85;;;7.45;;
9783;SDS011;4931;44.874;-1.092;2022-11-21T00:34:40;48.70;;;7.32;;
9783;SDS011;4931;44.874;-1.092;2022-11-21T00:39:25;33.03;;;6.75;;
9783;SDS011;4931;44.874;-1.092;2022-11-21T00:44:11;38.75;;;7.78;;
9783;SDS011;4931;44.874;-1.092;2022-11-21T00:48:59;41.15;;;7.32;;
9783;SDS011;4931;44.874;-1.092;2022-11-21T00:53:44;39.92;;;6.82;;
9783;SDS011;4931;44.874;-1.092;2022-11-21T00:58:29;32.40;;;6.28;;
9783;SDS011;4931;44.874;-1.092;2022-11-21T01:03:14;39.72;;;7.82;;
9783;SDS011;4931;44.874;-1.092;2022-11-21T01:08:02;37.58;;;6.25;;
9783;SDS011;4931;44.874;-1.092;2022-11-21T01:12:48;38.45;;;6.78;;
9783;SDS011;4931;44.874;-1.092;2022-11-21T01:17:33;36.58;;;6.53;;
9783;SDS011;4931;44.874;-1.092;2022-11-21T01:22:18;27.95;;;5.90;;
9783;SDS011;4931;44.874;-1.092;2022-11-21T01:27:06;37.88;;;6.15;;
9783;SDS011;4931;44.874;-1.092;2022-11-21T01:31:51;28.60;;;5.95;;
9783;SDS011;4931;44.874;-1.092;2022-11-21T01:36:36;33.30;;;6.35;;
9783;SDS011;4931;44.874;-1.092;2022-11-21T01:41:23;31.65;;;5.40;;
9783;SDS011;4931;44.874;-1.092;2022-11-21T01:46:15;30.90;;;5.40;;
9783;SDS011;4931;44.874;-1.092;2022-11-21T01:51:02;26.17;;;4.95;;
9783;SDS011;4931;44.874;-1.092;2022-11-21T01:55:51;35.88;;;5.45;;
9783;SDS011;4931;44.874;-1.092;2022-11-21T02:00:37;31.75;;;5.32;;
9783;SDS011;4931;44.874;-1.092;2022-11-21T02:05:28;24.90;;;4.43;;
9783;SDS011;4931;44.874;-1.092;2022-11-21T02:10:17;41.20;;;5.40;;
9783;SDS011;4931;44.874;-1.092;2022-11-21T02:15:04;28.65;;;4.85;;
9783;SDS011;4931;44.874;-1.092;2022-11-21T02:19:51;28.45;;;4.70;;
9783;SDS011;4931;44.874;-1.092;2022-11-21T02:24:43;26.90;;;5.25;;
9783;SDS011;4931;44.874;-1.092;2022-11-21T02:29:33;30.17;;;5.65;;
9783;SDS011;4931;44.874;-1.092;2022-11-21T02:34:18;30.42;;;4.75;;
9783;SDS011;4931;44.874;-1.092;2022-11-21T02:39:04;25.88;;;4.85;;
9783;SDS011;4931;44.874;-1.092;2022-11-21T02:43:51;27.70;;;5.07;;
9783;SDS011;4931;44.874;-1.092;2022-11-21T02:48:43;32.58;;;4.93;;
9783;SDS011;4931;44.874;-1.092;2022-11-21T02:53:28;30.23;;;5.13;;
9783;SDS011;4931;44.874;-1.092;2022-11-21T02:58:14;31.90;;;5.20;;
9783;SDS011;4931;44.874;-1.092;2022-11-21T03:03:00;38.20;;;5.43;;
9783;SDS011;4931;44.874;-1.092;2022-11-21T03:07:48;35.33;;;5.70;;
9783;SDS011;4931;44.874;-1.092;2022-11-21T03:12:34;34.13;;;5.57;;
9783;SDS011;4931;44.874;-1.092;2022-11-21T03:17:19;27.85;;;5.05;;
9783;SDS011;4931;44.874;-1.092;2022-11-21T03:22:04;34.72;;;5.32;;
9783;SDS011;4931;44.874;-1.092;2022-11-21T03:26:52;39.05;;;7.03;;
9783;SDS011;4931;44.874;-1.092;2022-11-21T03:31:38;29.38;;;6.10;;
9783;SDS011;4931;44.874;-1.092;2022-11-21T03:36:23;38.97;;;7.03;;
9783;SDS011;4931;44.874;-1.092;2022-11-21T03:41:08;35.70;;;7.32;;
9783;SDS011;4931;44.874;-1.092;2022-11-21T03:46:08;36.47;;;6.95;;
9783;SDS011;4931;44.874;-1.092;2022-11-21T03:50:53;42.00;;;7.35;;
9783;SDS011;4931;44.874;-1.092;2022-11-21T03:55:38;34.78;;;6.90;;
9783;SDS011;4931;44.874;-1.092;2022-11-21T04:00:23;26.70;;;6.43;;
9783;SDS011;4931;44.874;-1.092;2022-11-21T04:05:11;32.50;;;7.25;;
9783;SDS011;4931;44.874;-1.092;2022-11-21T04:09:56;21.92;;;6.35;;
9783;SDS011;4931;44.874;-1.092;2022-11-21T04:14:42;31.75;;;6.72;;
9783;SDS011;4931;44.874;-1.092;2022-11-21T04:19:27;19.67;;;5.28;;
9783;SDS011;4931;44.874;-1.092;2022-11-21T04:24:15;25.58;;;5.55;;
9783;SDS011;4931;44.874;-1.092;2022-11-21T04:29:00;29.02;;;6.35;;
9783;SDS011;4931;44.874;-1.092;2022-11-21T04:33:45;28.10;;;6.45;;
9783;SDS011;4931;44.874;-1.092;2022-11-21T04:38:30;18.35;;;5.15;;
9783;SDS011;4931;44.874;-1.092;2022-11-21T04:43:18;20.05;;;5.32;;
9783;SDS011;4931;44.874;-1.092;2022-11-21T04:48:03;25.13;;;6.57;;
9783;SDS011;4931;44.874;-1.092;2022-11-21T04:52:49;22.73;;;5.72;;
9783;SDS011;4931;44.874;-1.092;2022-11-21T04:57:35;21.30;;;6.57;;
9783;SDS011;4931;44.874;-1.092;2022-11-21T05:02:23;23.58;;;6.03;;
9783;SDS011;4931;44.874;-1.092;2022-11-21T05:07:08;26.80;;;5.78;;
9783;SDS011;4931;44.874;-1.092;2022-11-21T05:11:53;20.63;;;5.55;;
9783;SDS011;4931;44.874;-1.092;2022-11-21T05:16:51;24.65;;;5.93;;
9783;SDS011;4931;44.874;-1.092;2022-11-21T05:21:39;26.08;;;6.35;;
9783;SDS011;4931;44.874;-1.092;2022-11-21T05:26:24;25.13;;;6.88;;
9783;SDS011;4931;44.874;-1.092;2022-11-21T05:31:09;27.65;;;6.68;;
9783;SDS011;4931;44.874;-1.092;2022-11-21T05:35:54;24.60;;;6.93;;
9783;SDS011;4931;44.874;-1.092;2022-11-21T05:40:42;35.15;;;7.47;;
9783;SDS011;4931;44.874;-1.092;2022-11-21T05:45:27;27.33;;;7.85;;
9783;SDS011;4931;44.874;-1.092;2022-11-21T05:50:12;30.73;;;7.18;;
9783;SDS011;4931;44.874;-1.092;2022-11-21T05:54:57;24.92;;;7.50;;
9783;SDS011;4931;44.874;-1.092;2022-11-21T05:59:45;31.17;;;7.10;;
9783;SDS011;4931;44.874;-1.092;2022-11-21T06:04:30;27.05;;;8.02;;
9783;SDS011;4931;44.874;-1.092;2022-11-21T06:09:15;23.73;;;6.78;;
9783;SDS011;4931;44.874;-1.092;2022-11-21T06:14:01;25.65;;;7.03;;
9783;SDS011;4931;44.874;-1.092;2022-11-21T06:18:58;26.52;;;7.30;;
9783;SDS011;4931;44.874;-1.092;2022-11-21T06:23:44;20.30;;;6.25;;
9783;SDS011;4931;44.874;-1.092;2022-11-21T06:28:31;15.68;;;5.90;;
9783;SDS011;4931;44.874;-1.092;2022-11-21T06:33:17;17.95;;;5.57;;
9783;SDS011;4931;44.874;-1.092;2022-11-21T06:38:05;14.93;;;4.80;;
9783;SDS011;4931;44.874;-1.092;2022-11-21T06:42:51;13.60;;;5.50;;
9783;SDS011;4931;44.874;-1.092;2022-11-21T06:47:35;17.80;;;5.38;;
9783;SDS011;4931;44.874;-1.092;2022-11-21T06:52:21;12.43;;;4.07;;
9783;SDS011;4931;44.874;-1.092;2022-11-21T06:57:08;11.27;;;4.35;;
9783;SDS011;4931;44.874;-1.092;2022-11-21T07:01:54;11.45;;;4.22;;
9783;SDS011;4931;44.874;-1.092;2022-11-21T07:06:39;11.82;;;4.10;;
9783;SDS011;4931;44.874;-1.092;2022-11-21T07:11:24;12.75;;;5.38;;
9783;SDS011;4931;44.874;-1.092;2022-11-21T07:16:12;13.55;;;5.30;;
9783;SDS011;4931;44.874;-1.092;2022-11-21T07:20:58;11.07;;;3.95;;
9783;SDS011;4931;44.874;-1.092;2022-11-21T07:25:43;13.30;;;3.90;;
9783;SDS011;4931;44.874;-1.092;2022-11-21T07:30:28;10.60;;;3.97;;
9783;SDS011;4931;44.874;-1.092;2022-11-21T07:35:16;11.90;;;4.25;;
9783;SDS011;4931;44.874;-1.092;2022-11-21T07:40:01;10.48;;;3.92;;
9783;SDS011;4931;44.874;-1.092;2022-11-21T07:44:47;10.10;;;3.67;;
9783;SDS011;4931;44.874;-1.092;2022-11-21T07:49:32;11.75;;;4.32;;
9783;SDS011;4931;44.874;-1.092;2022-11-21T07:54:20;9.48;;;3.67;;
9783;SDS011;4931;44.874;-1.092;2022-11-21T07:59:05;10.02;;;3.92;;
9783;SDS011;4931;44.874;-1.092;2022-11-21T08:03:50;8.05;;;3.42;;
9783;SDS011;4931;44.874;-1.092;2022-11-21T08:08:36;9.25;;;3.65;;
9783;SDS011;4931;44.874;-1.092;2022-11-21T08:13:23;12.48;;;5.65;;
9783;SDS011;4931;44.874;-1.092;2022-11-21T08:18:09;9.02;;;4.20;;
9783;SDS011;4931;44.874;-1.092;2022-11-21T08:22:55;8.32;;;3.40;;
9783;SDS011;4931;44.874;-1.092;2022-11-21T08:27:40;4.35;;;2.10;;
9783;SDS011;4931;44.874;-1.092;2022-11-21T08:32:28;4.88;;;1.85;;
9783;SDS011;4931;44.874;-1.092;2022-11-21T08:37:13;11.82;;;2.83;;
9783;SDS011;4931;44.874;-1.092;2022-11-21T08:41:58;20.17;;;4.35;;
9783;SDS011;4931;44.874;-1.092;2022-11-21T08:46:46;23.42;;;3.50;;
9783;SDS011;4931;44.874;-1.092;2022-11-21T08:51:34;38.80;;;4.90;;
9783;SDS011;4931;44.874;-1.092;2022-11-21T08:56:19;40.80;;;5.82;;
9783;SDS011;4931;44.874;-1.092;2022-11-21T09:01:05;71.30;;;7.47;;
9783;SDS011;4931;44.874;-1.092;2022-11-21T09:05:50;59.67;;;7.13;;
9783;SDS011;4931;44.874;-1.092;2022-11-21T09:10:38;67.43;;;6.50;;
9783;SDS011;4931;44.874;-1.092;2022-11-21T09:15:23;89.05;;;8.55;;
9783;SDS011;4931;44.874;-1.092;2022-11-21T09:20:20;86.93;;;9.48;;
9783;SDS011;4931;44.874;-1.092;2022-11-21T09:25:06;79.60;;;10.32;;
9783;SDS011;4931;44.874;-1.092;2022-11-21T09:29:54;95.95;;;11.45;;
9783;SDS011;4931;44.874;-1.092;2022-11-21T09:34:40;78.78;;;9.95;;
9783;SDS011;4931;44.874;-1.092;2022-11-21T09:39:25;76.15;;;8.52;;
9783;SDS011;4931;44.874;-1.092;2022-11-21T09:44:13;82.65;;;9.43;;
9783;SDS011;4931;44.874;-1.092;2022-11-21T09:49:14;83.85;;;9.75;;
9783;SDS011;4931;44.874;-1.092;2022-11-21T09:54:00;72.78;;;9.27;;
9783;SDS011;4931;44.874;-1.092;2022-11-21T09:58:53;70.30;;;8.90;;
9783;SDS011;4931;44.874;-1.092;2022-11-21T10:03:49;64.60;;;9.23;;
9783;SDS011;4931;44.874;-1.092;2022-11-21T10:08:41;64.97;;;8.35;;
9783;SDS011;4931;44.874;-1.092;2022-11-21T10:13:39;66.88;;;8.18;;
9783;SDS011;4931;44.874;-1.092;2022-11-21T10:24:11;67.63;;;8.20;;
9783;SDS011;4931;44.874;-1.092;2022-11-21T10:29:08;71.45;;;7.85;;
9783;SDS011;4931;44.874;-1.092;2022-11-21T10:33:58;70.10;;;8.32;;
9783;SDS011;4931;44.874;-1.092;2022-11-21T10:38:47;48.22;;;7.65;;
9783;SDS011;4931;44.874;-1.092;2022-11-21T10:43:38;66.63;;;10.07;;
9783;SDS011;4931;44.874;-1.092;2022-11-21T10:48:39;65.95;;;7.88;;
9783;SDS011;4931;44.874;-1.092;2022-11-21T10:53:24;56.05;;;8.57;;
9783;SDS011;4931;44.874;-1.092;2022-11-21T10:58:27;59.00;;;7.97;;
9783;SDS011;4931;44.874;-1.092;2022-11-21T11:03:24;62.07;;;8.67;;
9783;SDS011;4931;44.874;-1.092;2022-11-21T11:08:09;59.03;;;7.10;;
9783;SDS011;4931;44.874;-1.092;2022-11-21T11:12:56;57.20;;;8.30;;
9783;SDS011;4931;44.874;-1.092;2022-11-21T11:18:18;49.75;;;7.90;;
9783;SDS011;4931;44.874;-1.092;2022-11-21T11:23:15;78.20;;;9.43;;
9783;SDS011;4931;44.874;-1.092;2022-11-21T11:28:07;62.33;;;7.72;;
9783;SDS011;4931;44.874;-1.092;2022-11-21T11:32:52;53.53;;;7.50;;
9783;SDS011;4931;44.874;-1.092;2022-11-21T11:37:40;54.42;;;8.20;;
9783;SDS011;4931;44.874;-1.092;2022-11-21T11:48:02;73.30;;;8.75;;
9783;SDS011;4931;44.874;-1.092;2022-11-21T11:52:56;65.80;;;8.07;;
9783;SDS011;4931;44.874;-1.092;2022-11-21T11:57:52;69.68;;;8.77;;
9783;SDS011;4931;44.874;-1.092;2022-11-21T12:02:44;79.65;;;9.52;;
9783;SDS011;4931;44.874;-1.092;2022-11-21T12:07:36;68.28;;;9.05;;
9783;SDS011;4931;44.874;-1.092;2022-11-21T12:12:47;75.22;;;9.77;;
9783;SDS011;4931;44.874;-1.092;2022-11-21T12:17:37;70.47;;;9.18;;
9783;SDS011;4931;44.874;-1.092;2022-11-21T12:22:27;70.60;;;9.05;;
9783;SDS011;4931;44.874;-1.092;2022-11-21T12:27:17;53.42;;;7.22;;
9783;SDS011;4931;44.874;-1.092;2022-11-21T12:32:13;78.90;;;9.02;;
9783;SDS011;4931;44.874;-1.092;2022-11-21T12:37:15;74.97;;;9.25;;
9783;SDS011;4931;44.874;-1.092;2022-11-21T12:42:15;55.03;;;6.85;;
9783;SDS011;4931;44.874;-1.092;2022-11-21T12:47:29;52.88;;;6.50;;
9783;SDS011;4931;44.874;-1.092;2022-11-21T12:52:40;54.17;;;6.63;;
9783;SDS011;4931;44.874;-1.092;2022-11-21T12:57:50;49.15;;;6.47;;
9783;SDS011;4931;44.874;-1.092;2022-11-21T13:02:59;49.55;;;6.80;;
9783;SDS011;4931;44.874;-1.092;2022-11-21T13:08:02;43.65;;;6.53;;
9783;SDS011;4931;44.874;-1.092;2022-11-21T13:12:52;43.50;;;5.95;;
9783;SDS011;4931;44.874;-1.092;2022-11-21T13:27:41;46.85;;;6.40;;
9783;SDS011;4931;44.874;-1.092;2022-11-21T13:32:36;54.08;;;6.38;;
9783;SDS011;4931;44.874;-1.092;2022-11-21T13:48:17;45.95;;;5.90;;
9783;SDS011;4931;44.874;-1.092;2022-11-21T13:53:25;37.55;;;4.95;;
9783;SDS011;4931;44.874;-1.092;2022-11-21T13:58:29;37.80;;;4.70;;
9783;SDS011;4931;44.874;-1.092;2022-11-21T14:03:46;31.70;;;4.03;;
9783;SDS011;4931;44.874;-1.092;2022-11-21T14:08:51;31.58;;;4.88;;
9783;SDS011;4931;44.874;-1.092;2022-11-21T14:14:03;19.95;;;3.33;;
9783;SDS011;4931;44.874;-1.092;2022-11-21T14:18:49;22.05;;;2.80;;
9783;SDS011;4931;44.874;-1.092;2022-11-21T14:23:34;26.23;;;3.40;;
9783;SDS011;4931;44.874;-1.092;2022-11-21T14:28:28;30.83;;;3.90;;
9783;SDS011;4931;44.874;-1.092;2022-11-21T14:33:27;27.52;;;3.60;;
9783;SDS011;4931;44.874;-1.092;2022-11-21T14:38:14;26.52;;;3.78;;
9783;SDS011;4931;44.874;-1.092;2022-11-21T14:42:59;36.47;;;4.45;;
9783;SDS011;4931;44.874;-1.092;2022-11-21T14:47:45;29.20;;;3.60;;
9783;SDS011;4931;44.874;-1.092;2022-11-21T14:52:34;29.38;;;3.63;;
9783;SDS011;4931;44.874;-1.092;2022-11-21T14:57:21;32.90;;;4.55;;
9783;SDS011;4931;44.874;-1.092;2022-11-21T15:02:10;34.97;;;5.10;;
9783;SDS011;4931;44.874;-1.092;2022-11-21T15:06:57;23.90;;;3.28;;
9783;SDS011;4931;44.874;-1.092;2022-11-21T15:11:47;30.58;;;3.55;;
9783;SDS011;4931;44.874;-1.092;2022-11-21T15:16:35;28.20;;;3.95;;
9783;SDS011;4931;44.874;-1.092;2022-11-21T15:21:21;34.58;;;3.97;;
9783;SDS011;4931;44.874;-1.092;2022-11-21T15:31:18;30.00;;;4.07;;
9783;SDS011;4931;44.874;-1.092;2022-11-21T15:36:10;28.17;;;3.22;;
9783;SDS011;4931;44.874;-1.092;2022-11-21T15:41:01;19.98;;;2.88;;
9783;SDS011;4931;44.874;-1.092;2022-11-21T15:45:58;26.00;;;3.53;;
9783;SDS011;4931;44.874;-1.092;2022-11-21T15:50:48;24.50;;;3.13;;
9783;SDS011;4931;44.874;-1.092;2022-11-21T15:55:39;25.50;;;3.03;;
9783;SDS011;4931;44.874;-1.092;2022-11-21T16:00:24;19.13;;;2.55;;
9783;SDS011;4931;44.874;-1.092;2022-11-21T16:05:10;14.27;;;2.33;;
9783;SDS011;4931;44.874;-1.092;2022-11-21T16:09:59;26.33;;;3.20;;
9783;SDS011;4931;44.874;-1.092;2022-11-21T16:14:44;19.70;;;2.05;;
9783;SDS011;4931;44.874;-1.092;2022-11-21T16:19:29;19.02;;;2.78;;
9783;SDS011;4931;44.874;-1.092;2022-11-21T16:24:15;21.05;;;2.53;;
9783;SDS011;4931;44.874;-1.092;2022-11-21T16:29:03;18.65;;;2.58;;
9783;SDS011;4931;44.874;-1.092;2022-11-21T16:33:48;23.25;;;4.15;;
9783;SDS011;4931;44.874;-1.092;2022-11-21T16:38:33;22.73;;;2.80;;
9783;SDS011;4931;44.874;-1.092;2022-11-21T16:43:18;19.38;;;3.00;;
9783;SDS011;4931;44.874;-1.092;2022-11-21T16:48:06;22.08;;;2.97;;
9783;SDS011;4931;44.874;-1.092;2022-11-21T16:52:51;20.40;;;2.20;;
9783;SDS011;4931;44.874;-1.092;2022-11-21T16:57:37;24.13;;;2.53;;
9783;SDS011;4931;44.874;-1.092;2022-11-21T17:02:23;28.02;;;2.90;;
9783;SDS011;4931;44.874;-1.092;2022-11-21T17:07:11;25.25;;;3.00;;
9783;SDS011;4931;44.874;-1.092;2022-11-21T17:11:56;22.52;;;2.72;;
9783;SDS011;4931;44.874;-1.092;2022-11-21T17:16:42;26.23;;;3.00;;
9783;SDS011;4931;44.874;-1.092;2022-11-21T17:21:29;29.58;;;3.13;;
9783;SDS011;4931;44.874;-1.092;2022-11-21T17:26:19;21.92;;;3.10;;
9783;SDS011;4931;44.874;-1.092;2022-11-21T17:31:05;24.52;;;3.60;;
9783;SDS011;4931;44.874;-1.092;2022-11-21T17:35:52;35.22;;;4.38;;
9783;SDS011;4931;44.874;-1.092;2022-11-21T17:40:37;34.00;;;4.22;;
9783;SDS011;4931;44.874;-1.092;2022-11-21T17:45:25;30.50;;;3.13;;
9783;SDS011;4931;44.874;-1.092;2022-11-21T17:50:10;22.20;;;3.20;;
9783;SDS011;4931;44.874;-1.092;2022-11-21T17:54:55;29.23;;;3.75;;
9783;SDS011;4931;44.874;-1.092;2022-11-21T17:59:40;26.35;;;3.90;;
9783;SDS011;4931;44.874;-1.092;2022-11-21T18:04:28;17.98;;;2.78;;
9783;SDS011;4931;44.874;-1.092;2022-11-21T18:09:15;25.88;;;4.10;;
9783;SDS011;4931;44.874;-1.092;2022-11-21T18:14:00;24.63;;;3.53;;
9783;SDS011;4931;44.874;-1.092;2022-11-21T18:18:46;27.15;;;3.45;;
9783;SDS011;4931;44.874;-1.092;2022-11-21T18:23:35;29.92;;;5.00;;
9783;SDS011;4931;44.874;-1.092;2022-11-21T18:28:20;24.58;;;3.67;;
9783;SDS011;4931;44.874;-1.092;2022-11-21T18:33:05;17.30;;;2.28;;
9783;SDS011;4931;44.874;-1.092;2022-11-21T18:42:45;28.15;;;3.20;;
9783;SDS011;4931;44.874;-1.092;2022-11-21T18:47:30;36.45;;;6.57;;
9783;SDS011;4931;44.874;-1.092;2022-11-21T18:52:16;25.30;;;3.35;;
9783;SDS011;4931;44.874;-1.092;2022-11-21T18:57:01;17.25;;;2.28;;
9783;SDS011;4931;44.874;-1.092;2022-11-21T19:01:49;26.10;;;3.42;;
9783;SDS011;4931;44.874;-1.092;2022-11-21T19:06:34;18.45;;;3.30;;
9783;SDS011;4931;44.874;-1.092;2022-11-21T19:11:20;23.20;;;2.53;;
9783;SDS011;4931;44.874;-1.092;2022-11-21T19:16:09;26.65;;;3.10;;
9783;SDS011;4931;44.874;-1.092;2022-11-21T19:20:59;28.90;;;3.30;;
9783;SDS011;4931;44.874;-1.092;2022-11-21T19:25:45;26.73;;;3.40;;
9783;SDS011;4931;44.874;-1.092;2022-11-21T19:30:30;21.45;;;3.72;;
9783;SDS011;4931;44.874;-1.092;2022-11-21T19:35:17;32.05;;;3.75;;
9783;SDS011;4931;44.874;-1.092;2022-11-21T19:40:07;21.08;;;2.92;;
9783;SDS011;4931;44.874;-1.092;2022-11-21T19:44:53;21.85;;;3.33;;
9783;SDS011;4931;44.874;-1.092;2022-11-21T19:49:39;24.65;;;3.17;;
9783;SDS011;4931;44.874;-1.092;2022-11-21T19:54:24;29.23;;;3.60;;
9783;SDS011;4931;44.874;-1.092;2022-11-21T19:59:12;24.60;;;3.17;;
9783;SDS011;4931;44.874;-1.092;2022-11-21T20:03:59;21.08;;;3.20;;
9783;SDS011;4931;44.874;-1.092;2022-11-21T20:08:47;18.52;;;3.13;;
9783;SDS011;4931;44.874;-1.092;2022-11-21T20:13:34;28.70;;;3.00;;
9783;SDS011;4931;44.874;-1.092;2022-11-21T20:18:23;21.77;;;2.85;;
9783;SDS011;4931;44.874;-1.092;2022-11-21T20:23:09;27.08;;;3.15;;
9783;SDS011;4931;44.874;-1.092;2022-11-21T20:27:55;22.67;;;3.53;;
9783;SDS011;4931;44.874;-1.092;2022-11-21T20:32:40;23.35;;;3.28;;
9783;SDS011;4931;44.874;-1.092;2022-11-21T20:37:28;18.83;;;4.00;;
9783;SDS011;4931;44.874;-1.092;2022-11-21T20:42:13;16.48;;;3.50;;
9783;SDS011;4931;44.874;-1.092;2022-11-21T20:46:58;17.15;;;2.60;;
9783;SDS011;4931;44.874;-1.092;2022-11-21T20:51:43;23.25;;;2.83;;
9783;SDS011;4931;44.874;-1.092;2022-11-21T20:56:52;27.13;;;3.00;;
9783;SDS011;4931;44.874;-1.092;2022-11-21T21:01:37;24.00;;;5.00;;
9783;SDS011;4931;44.874;-1.092;2022-11-21T21:06:22;31.40;;;3.40;;
9783;SDS011;4931;44.874;-1.092;2022-11-21T21:11:09;28.42;;;3.40;;
9783;SDS011;4931;44.874;-1.092;2022-11-21T21:16:19;29.05;;;3.65;;
9783;SDS011;4931;44.874;-1.092;2022-11-21T21:21:06;24.95;;;3.10;;
9783;SDS011;4931;44.874;-1.092;2022-11-21T21:30:50;12.05;;;1.92;;
9783;SDS011;4931;44.874;-1.092;2022-11-21T21:35:38;11.98;;;1.65;;
9783;SDS011;4931;44.874;-1.092;2022-11-21T21:40:23;21.00;;;2.33;;
9783;SDS011;4931;44.874;-1.092;2022-11-21T21:45:09;19.33;;;2.53;;
9783;SDS011;4931;44.874;-1.092;2022-11-21T21:49:54;14.38;;;2.70;;
9783;SDS011;4931;44.874;-1.092;2022-11-21T21:54:42;20.95;;;2.28;;
9783;SDS011;4931;44.874;-1.092;2022-11-21T21:59:27;19.67;;;2.60;;
9783;SDS011;4931;44.874;-1.092;2022-11-21T22:04:13;22.63;;;2.65;;
9783;SDS011;4931;44.874;-1.092;2022-11-21T22:08:58;20.88;;;2.55;;
9783;SDS011;4931;44.874;-1.092;2022-11-21T22:13:47;17.15;;;3.22;;
9783;SDS011;4931;44.874;-1.092;2022-11-21T22:18:36;26.55;;;4.07;;
9783;SDS011;4931;44.874;-1.092;2022-11-21T22:23:22;36.45;;;4.70;;
9783;SDS011;4931;44.874;-1.092;2022-11-21T22:28:07;32.90;;;3.88;;
9783;SDS011;4931;44.874;-1.092;2022-11-21T22:32:56;24.10;;;3.10;;
9783;SDS011;4931;44.874;-1.092;2022-11-21T22:37:41;14.75;;;1.98;;
9783;SDS011;4931;44.874;-1.092;2022-11-21T22:42:26;22.15;;;2.50;;
9783;SDS011;4931;44.874;-1.092;2022-11-21T22:47:11;18.02;;;2.20;;
9783;SDS011;4931;44.874;-1.092;2022-11-21T22:51:59;13.85;;;2.28;;
9783;SDS011;4931;44.874;-1.092;2022-11-21T22:56:44;24.95;;;3.13;;
9783;SDS011;4931;44.874;-1.092;2022-11-21T23:01:30;17.52;;;2.35;;
9783;SDS011;4931;44.874;-1.092;2022-11-21T23:06:18;18.75;;;2.72;;
9783;SDS011;4931;44.874;-1.092;2022-11-21T23:11:07;29.42;;;3.53;;
9783;SDS011;4931;44.874;-1.092;2022-11-21T23:15:54;25.48;;;3.33;;
9783;SDS011;4931;44.874;-1.092;2022-11-21T23:20:41;14.85;;;1.95;;
9783;SDS011;4931;44.874;-1.092;2022-11-21T23:25:27;19.08;;;2.10;;
9783;SDS011;4931;44.874;-1.092;2022-11-21T23:30:15;12.50;;;1.77;;
9783;SDS011;4931;44.874;-1.092;2022-11-21T23:35:01;29.15;;;3.30;;
9783;SDS011;4931;44.874;-1.092;2022-11-21T23:39:46;30.65;;;3.60;;
9783;SDS011;4931;44.874;-1.092;2022-11-21T23:44:32;27.60;;;3.78;;
9783;SDS011;4931;44.874;-1.092;2022-11-21T23:49:19;29.20;;;3.58;;
9783;SDS011;4931;44.874;-1.092;2022-11-21T23:54:05;37.90;;;3.75;;
9783;SDS011;4931;44.874;-1.092;2022-11-21T23:58:50;30.65;;;3.85;;
